sensor_id;sensor_type;location;lat;lon;timestamp;P1;durP1;ratioP1;P2;durP2;ratioP2
69910;SDS011;63555;49.920;17.868;2023-02-18T00:04:04;2.70;;;1.20;;
69910;SDS011;63555;49.920;17.868;2023-02-18T00:09:05;2.60;;;0.80;;
69910;SDS011;63555;49.920;17.868;2023-02-18T00:14:10;2.10;;;0.70;;
69910;SDS011;63555;49.920;17.868;2023-02-18T00:19:14;2.55;;;0.80;;
69910;SDS011;63555;49.920;17.868;2023-02-18T00:24:16;2.03;;;0.67;;
69910;SDS011;63555;49.920;17.868;2023-02-18T00:29:17;2.80;;;0.77;;
69910;SDS011;63555;49.920;17.868;2023-02-18T00:34:18;4.80;;;0.82;;
69910;SDS011;63555;49.920;17.868;2023-02-18T00:39:18;1.60;;;0.60;;
69910;SDS011;63555;49.920;17.868;2023-02-18T00:44:19;2.53;;;0.83;;
69910;SDS011;63555;49.920;17.868;2023-02-18T00:49:19;2.80;;;0.93;;
69910;SDS011;63555;49.920;17.868;2023-02-18T00:54:19;3.10;;;0.90;;
69910;SDS011;63555;49.920;17.868;2023-02-18T00:59:20;4.50;;;1.00;;
69910;SDS011;63555;49.920;17.868;2023-02-18T01:04:20;3.00;;;0.90;;
69910;SDS011;63555;49.920;17.868;2023-02-18T01:09:20;3.43;;;1.20;;
69910;SDS011;63555;49.920;17.868;2023-02-18T01:14:24;3.47;;;1.10;;
69910;SDS011;63555;49.920;17.868;2023-02-18T01:19:24;3.23;;;1.20;;
69910;SDS011;63555;49.920;17.868;2023-02-18T01:24:25;4.70;;;1.03;;
69910;SDS011;63555;49.920;17.868;2023-02-18T01:29:25;3.23;;;1.20;;
69910;SDS011;63555;49.920;17.868;2023-02-18T01:34:25;2.73;;;0.93;;
69910;SDS011;63555;49.920;17.868;2023-02-18T01:39:26;3.87;;;1.17;;
69910;SDS011;63555;49.920;17.868;2023-02-18T01:44:26;3.90;;;1.23;;
69910;SDS011;63555;49.920;17.868;2023-02-18T01:49:29;2.87;;;1.07;;
69910;SDS011;63555;49.920;17.868;2023-02-18T01:54:35;3.15;;;1.27;;
69910;SDS011;63555;49.920;17.868;2023-02-18T01:59:42;4.25;;;1.35;;
69910;SDS011;63555;49.920;17.868;2023-02-18T02:04:45;3.20;;;1.60;;
69910;SDS011;63555;49.920;17.868;2023-02-18T02:09:46;3.60;;;1.50;;
69910;SDS011;63555;49.920;17.868;2023-02-18T02:42:20;4.10;;;1.23;;
69910;SDS011;63555;49.920;17.868;2023-02-18T02:47:38;3.42;;;1.00;;
69910;SDS011;63555;49.920;17.868;2023-02-18T02:52:49;2.57;;;0.97;;
69910;SDS011;63555;49.920;17.868;2023-02-18T02:57:55;2.22;;;0.98;;
69910;SDS011;63555;49.920;17.868;2023-02-18T03:08:24;3.50;;;1.35;;
69910;SDS011;63555;49.920;17.868;2023-02-18T03:19:41;3.10;;;1.30;;
69910;SDS011;63555;49.920;17.868;2023-02-18T03:24:31;3.95;;;1.52;;
69910;SDS011;63555;49.920;17.868;2023-02-18T03:29:35;3.20;;;1.10;;
69910;SDS011;63555;49.920;17.868;2023-02-18T03:34:40;2.53;;;0.85;;
69910;SDS011;63555;49.920;17.868;2023-02-18T03:39:45;3.80;;;1.20;;
69910;SDS011;63555;49.920;17.868;2023-02-18T03:44:51;2.40;;;0.90;;
69910;SDS011;63555;49.920;17.868;2023-02-18T03:49:52;3.00;;;1.00;;
69910;SDS011;63555;49.920;17.868;2023-02-18T03:54:52;3.23;;;1.30;;
69910;SDS011;63555;49.920;17.868;2023-02-18T03:59:52;4.10;;;1.30;;
69910;SDS011;63555;49.920;17.868;2023-02-18T04:04:53;3.23;;;1.10;;
69910;SDS011;63555;49.920;17.868;2023-02-18T04:09:53;4.03;;;1.27;;
69910;SDS011;63555;49.920;17.868;2023-02-18T04:14:53;3.87;;;0.93;;
69910;SDS011;63555;49.920;17.868;2023-02-18T04:19:54;3.30;;;0.90;;
69910;SDS011;63555;49.920;17.868;2023-02-18T04:24:54;5.73;;;1.30;;
69910;SDS011;63555;49.920;17.868;2023-02-18T04:29:54;6.37;;;2.47;;
69910;SDS011;63555;49.920;17.868;2023-02-18T04:34:56;3.87;;;1.27;;
69910;SDS011;63555;49.920;17.868;2023-02-18T04:39:56;2.60;;;1.00;;
69910;SDS011;63555;49.920;17.868;2023-02-18T04:44:56;5.70;;;1.40;;
69910;SDS011;63555;49.920;17.868;2023-02-18T04:49:57;3.00;;;1.00;;
69910;SDS011;63555;49.920;17.868;2023-02-18T04:54:57;4.70;;;1.50;;
69910;SDS011;63555;49.920;17.868;2023-02-18T04:59:58;5.50;;;1.60;;
69910;SDS011;63555;49.920;17.868;2023-02-18T05:04:58;3.60;;;1.30;;
69910;SDS011;63555;49.920;17.868;2023-02-18T05:09:59;4.43;;;1.50;;
69910;SDS011;63555;49.920;17.868;2023-02-18T05:14:59;3.73;;;1.40;;
69910;SDS011;63555;49.920;17.868;2023-02-18T05:20:00;5.57;;;1.70;;
69910;SDS011;63555;49.920;17.868;2023-02-18T05:25:00;5.67;;;2.30;;
69910;SDS011;63555;49.920;17.868;2023-02-18T05:30:01;4.03;;;1.50;;
69910;SDS011;63555;49.920;17.868;2023-02-18T05:35:01;7.63;;;2.03;;
69910;SDS011;63555;49.920;17.868;2023-02-18T05:40:02;6.03;;;2.33;;
69910;SDS011;63555;49.920;17.868;2023-02-18T05:45:03;6.20;;;1.98;;
69910;SDS011;63555;49.920;17.868;2023-02-18T05:50:03;3.70;;;1.80;;
69910;SDS011;63555;49.920;17.868;2023-02-18T05:55:04;4.60;;;1.90;;
69910;SDS011;63555;49.920;17.868;2023-02-18T06:00:05;4.93;;;1.85;;
69910;SDS011;63555;49.920;17.868;2023-02-18T06:05:08;4.77;;;2.30;;
69910;SDS011;63555;49.920;17.868;2023-02-18T06:10:10;5.25;;;1.90;;
69910;SDS011;63555;49.920;17.868;2023-02-18T06:15:10;4.77;;;2.20;;
69910;SDS011;63555;49.920;17.868;2023-02-18T06:20:10;4.87;;;1.80;;
69910;SDS011;63555;49.920;17.868;2023-02-18T06:25:11;5.60;;;2.28;;
69910;SDS011;63555;49.920;17.868;2023-02-18T06:30:12;5.35;;;1.98;;
69910;SDS011;63555;49.920;17.868;2023-02-18T06:35:12;4.93;;;1.80;;
69910;SDS011;63555;49.920;17.868;2023-02-18T06:40:13;4.53;;;1.80;;
69910;SDS011;63555;49.920;17.868;2023-02-18T06:45:13;5.27;;;1.80;;
69910;SDS011;63555;49.920;17.868;2023-02-18T06:50:13;4.57;;;1.80;;
69910;SDS011;63555;49.920;17.868;2023-02-18T06:55:14;4.37;;;1.97;;
69910;SDS011;63555;49.920;17.868;2023-02-18T07:00:15;3.60;;;1.73;;
69910;SDS011;63555;49.920;17.868;2023-02-18T07:05:15;3.35;;;1.30;;
69910;SDS011;63555;49.920;17.868;2023-02-18T07:10:16;4.00;;;1.60;;
69910;SDS011;63555;49.920;17.868;2023-02-18T07:15:16;3.53;;;1.30;;
69910;SDS011;63555;49.920;17.868;2023-02-18T07:20:18;4.30;;;1.20;;
69910;SDS011;63555;49.920;17.868;2023-02-18T07:25:19;2.97;;;1.20;;
69910;SDS011;63555;49.920;17.868;2023-02-18T07:30:20;2.87;;;1.00;;
69910;SDS011;63555;49.920;17.868;2023-02-18T07:35:20;3.13;;;0.90;;
69910;SDS011;63555;49.920;17.868;2023-02-18T07:40:21;2.63;;;1.13;;
69910;SDS011;63555;49.920;17.868;2023-02-18T07:45:21;4.63;;;1.10;;
69910;SDS011;63555;49.920;17.868;2023-02-18T07:50:21;3.60;;;1.00;;
69910;SDS011;63555;49.920;17.868;2023-02-18T07:55:22;4.03;;;1.13;;
69910;SDS011;63555;49.920;17.868;2023-02-18T08:00:23;5.03;;;1.33;;
69910;SDS011;63555;49.920;17.868;2023-02-18T08:05:23;6.43;;;2.27;;
69910;SDS011;63555;49.920;17.868;2023-02-18T08:10:24;5.00;;;1.50;;
69910;SDS011;63555;49.920;17.868;2023-02-18T08:15:24;4.83;;;1.90;;
69910;SDS011;63555;49.920;17.868;2023-02-18T08:20:24;4.47;;;1.77;;
69910;SDS011;63555;49.920;17.868;2023-02-18T08:25:25;5.93;;;2.13;;
69910;SDS011;63555;49.920;17.868;2023-02-18T08:30:25;8.77;;;2.77;;
69910;SDS011;63555;49.920;17.868;2023-02-18T08:35:26;6.13;;;1.90;;
69910;SDS011;63555;49.920;17.868;2023-02-18T08:40:26;3.87;;;1.10;;
69910;SDS011;63555;49.920;17.868;2023-02-18T08:45:26;4.60;;;0.87;;
69910;SDS011;63555;49.920;17.868;2023-02-18T08:50:27;5.27;;;0.80;;
69910;SDS011;63555;49.920;17.868;2023-02-18T08:55:30;4.07;;;1.20;;
69910;SDS011;63555;49.920;17.868;2023-02-18T09:00:32;4.15;;;1.20;;
69910;SDS011;63555;49.920;17.868;2023-02-18T09:05:33;6.90;;;1.70;;
69910;SDS011;63555;49.920;17.868;2023-02-18T09:10:33;5.67;;;1.20;;
69910;SDS011;63555;49.920;17.868;2023-02-18T09:15:33;5.43;;;1.60;;
69910;SDS011;63555;49.920;17.868;2023-02-18T09:20:34;7.63;;;2.50;;
69910;SDS011;63555;49.920;17.868;2023-02-18T09:25:34;4.90;;;2.10;;
69910;SDS011;63555;49.920;17.868;2023-02-18T09:30:34;5.67;;;1.87;;
69910;SDS011;63555;49.920;17.868;2023-02-18T09:35:42;9.13;;;2.10;;
69910;SDS011;63555;49.920;17.868;2023-02-18T09:40:45;6.25;;;1.33;;
69910;SDS011;63555;49.920;17.868;2023-02-18T09:45:50;6.27;;;1.40;;
69910;SDS011;63555;49.920;17.868;2023-02-18T09:50:52;4.70;;;1.20;;
69910;SDS011;63555;49.920;17.868;2023-02-18T09:55:53;6.00;;;1.10;;
69910;SDS011;63555;49.920;17.868;2023-02-18T10:01:03;6.07;;;1.30;;
69910;SDS011;63555;49.920;17.868;2023-02-18T10:06:09;5.27;;;1.87;;
69910;SDS011;63555;49.920;17.868;2023-02-18T10:11:21;6.60;;;1.50;;
69910;SDS011;63555;49.920;17.868;2023-02-18T10:16:22;8.02;;;2.75;;
69910;SDS011;63555;49.920;17.868;2023-02-18T10:21:25;5.97;;;3.00;;
69910;SDS011;63555;49.920;17.868;2023-02-18T10:26:28;7.97;;;3.53;;
69910;SDS011;63555;49.920;17.868;2023-02-18T10:31:36;8.43;;;3.47;;
69910;SDS011;63555;49.920;17.868;2023-02-18T10:41:50;5.95;;;2.88;;
69910;SDS011;63555;49.920;17.868;2023-02-18T10:52:24;5.72;;;1.83;;
69910;SDS011;63555;49.920;17.868;2023-02-18T10:57:51;4.63;;;1.80;;
69910;SDS011;63555;49.920;17.868;2023-02-18T11:03:01;5.90;;;2.00;;
69910;SDS011;63555;49.920;17.868;2023-02-18T11:08:02;3.88;;;1.60;;
69910;SDS011;63555;49.920;17.868;2023-02-18T11:13:09;3.70;;;2.10;;
69910;SDS011;63555;49.920;17.868;2023-02-18T11:18:23;5.88;;;2.53;;
69910;SDS011;63555;49.920;17.868;2023-02-18T11:23:28;5.10;;;2.37;;
69910;SDS011;63555;49.920;17.868;2023-02-18T11:33:38;6.57;;;3.07;;
69910;SDS011;63555;49.920;17.868;2023-02-18T11:43:51;7.20;;;2.85;;
69910;SDS011;63555;49.920;17.868;2023-02-18T11:48:53;3.73;;;2.30;;
69910;SDS011;63555;49.920;17.868;2023-02-18T11:58:59;8.10;;;3.77;;
69910;SDS011;63555;49.920;17.868;2023-02-18T12:04:07;7.43;;;3.33;;
69910;SDS011;63555;49.920;17.868;2023-02-18T12:09:17;8.82;;;4.05;;
69910;SDS011;63555;49.920;17.868;2023-02-18T12:14:22;7.28;;;3.83;;
69910;SDS011;63555;49.920;17.868;2023-02-18T12:41:12;8.93;;;5.45;;
69910;SDS011;63555;49.920;17.868;2023-02-18T12:46:31;11.80;;;4.55;;
69910;SDS011;63555;49.920;17.868;2023-02-18T12:51:45;8.97;;;5.00;;
69910;SDS011;63555;49.920;17.868;2023-02-18T12:57:06;8.48;;;4.80;;
69910;SDS011;63555;49.920;17.868;2023-02-18T13:13:20;8.93;;;5.25;;
69910;SDS011;63555;49.920;17.868;2023-02-18T13:18:46;8.80;;;4.67;;
69910;SDS011;63555;49.920;17.868;2023-02-18T13:23:50;8.40;;;6.03;;
69910;SDS011;63555;49.920;17.868;2023-02-18T13:34:23;6.10;;;3.03;;
69910;SDS011;63555;49.920;17.868;2023-02-18T13:39:29;6.35;;;2.83;;
69910;SDS011;63555;49.920;17.868;2023-02-18T13:49:50;3.42;;;1.92;;
69910;SDS011;63555;49.920;17.868;2023-02-18T13:54:51;5.75;;;2.28;;
69910;SDS011;63555;49.920;17.868;2023-02-18T13:59:59;4.60;;;2.30;;
69910;SDS011;63555;49.920;17.868;2023-02-18T14:25:34;4.47;;;2.00;;
69910;SDS011;63555;49.920;17.868;2023-02-18T14:30:39;3.67;;;1.30;;
69910;SDS011;63555;49.920;17.868;2023-02-18T14:35:42;3.00;;;1.30;;
69910;SDS011;63555;49.920;17.868;2023-02-18T14:52:02;5.97;;;1.97;;
69910;SDS011;63555;49.920;17.868;2023-02-18T14:57:08;4.43;;;2.00;;
69910;SDS011;63555;49.920;17.868;2023-02-18T15:02:19;3.20;;;1.60;;
69910;SDS011;63555;49.920;17.868;2023-02-18T15:07:21;3.73;;;1.60;;
69910;SDS011;63555;49.920;17.868;2023-02-18T15:12:22;7.30;;;1.93;;
69910;SDS011;63555;49.920;17.868;2023-02-18T15:17:24;4.53;;;1.88;;
69910;SDS011;63555;49.920;17.868;2023-02-18T15:22:28;4.65;;;2.25;;
69910;SDS011;63555;49.920;17.868;2023-02-18T15:27:31;3.90;;;2.10;;
69910;SDS011;63555;49.920;17.868;2023-02-18T15:32:37;5.43;;;2.78;;
69910;SDS011;63555;49.920;17.868;2023-02-18T15:37:42;5.33;;;2.60;;
69910;SDS011;63555;49.920;17.868;2023-02-18T15:42:45;4.95;;;2.10;;
69910;SDS011;63555;49.920;17.868;2023-02-18T15:47:50;5.40;;;2.45;;
69910;SDS011;63555;49.920;17.868;2023-02-18T15:52:55;6.30;;;3.05;;
69910;SDS011;63555;49.920;17.868;2023-02-18T15:57:59;7.05;;;2.92;;
69910;SDS011;63555;49.920;17.868;2023-02-18T16:03:07;6.17;;;3.47;;
69910;SDS011;63555;49.920;17.868;2023-02-18T16:08:23;6.57;;;3.33;;
69910;SDS011;63555;49.920;17.868;2023-02-18T16:13:26;6.95;;;3.10;;
69910;SDS011;63555;49.920;17.868;2023-02-18T16:23:35;6.75;;;3.58;;
69910;SDS011;63555;49.920;17.868;2023-02-18T16:28:42;6.23;;;2.70;;
69910;SDS011;63555;49.920;17.868;2023-02-18T16:33:44;6.22;;;3.10;;
69910;SDS011;63555;49.920;17.868;2023-02-18T16:38:45;7.80;;;4.33;;
69910;SDS011;63555;49.920;17.868;2023-02-18T16:43:45;7.37;;;3.93;;
69910;SDS011;63555;49.920;17.868;2023-02-18T16:48:48;9.37;;;4.30;;
69910;SDS011;63555;49.920;17.868;2023-02-18T16:53:51;9.50;;;5.07;;
69910;SDS011;63555;49.920;17.868;2023-02-18T16:58:51;10.20;;;4.60;;
69910;SDS011;63555;49.920;17.868;2023-02-18T17:03:52;9.63;;;4.77;;
69910;SDS011;63555;49.920;17.868;2023-02-18T17:08:52;9.50;;;5.25;;
69910;SDS011;63555;49.920;17.868;2023-02-18T17:13:54;7.60;;;4.13;;
69910;SDS011;63555;49.920;17.868;2023-02-18T17:18:57;11.65;;;4.88;;
69910;SDS011;63555;49.920;17.868;2023-02-18T17:23:57;7.63;;;3.40;;
69910;SDS011;63555;49.920;17.868;2023-02-18T17:28:58;8.03;;;3.40;;
69910;SDS011;63555;49.920;17.868;2023-02-18T17:34:00;6.72;;;3.45;;
69910;SDS011;63555;49.920;17.868;2023-02-18T17:39:05;7.77;;;3.70;;
69910;SDS011;63555;49.920;17.868;2023-02-18T17:44:17;6.00;;;2.88;;
69910;SDS011;63555;49.920;17.868;2023-02-18T17:49:19;5.95;;;2.50;;
69910;SDS011;63555;49.920;17.868;2023-02-18T17:54:21;4.80;;;1.98;;
69910;SDS011;63555;49.920;17.868;2023-02-18T17:59:23;5.22;;;2.38;;
69910;SDS011;63555;49.920;17.868;2023-02-18T18:04:23;6.13;;;2.47;;
69910;SDS011;63555;49.920;17.868;2023-02-18T18:09:23;3.83;;;2.17;;
69910;SDS011;63555;49.920;17.868;2023-02-18T18:14:24;4.60;;;2.30;;
69910;SDS011;63555;49.920;17.868;2023-02-18T18:19:24;5.13;;;2.10;;
69910;SDS011;63555;49.920;17.868;2023-02-18T18:24:25;4.37;;;2.10;;
69910;SDS011;63555;49.920;17.868;2023-02-18T18:29:25;5.30;;;2.23;;
69910;SDS011;63555;49.920;17.868;2023-02-18T18:34:26;6.30;;;2.50;;
69910;SDS011;63555;49.920;17.868;2023-02-18T18:39:26;5.20;;;2.37;;
69910;SDS011;63555;49.920;17.868;2023-02-18T18:44:26;7.87;;;2.30;;
69910;SDS011;63555;49.920;17.868;2023-02-18T18:49:27;6.83;;;2.17;;
69910;SDS011;63555;49.920;17.868;2023-02-18T18:54:27;7.10;;;2.17;;
69910;SDS011;63555;49.920;17.868;2023-02-18T18:59:27;3.80;;;1.60;;
69910;SDS011;63555;49.920;17.868;2023-02-18T19:04:28;3.47;;;1.30;;
69910;SDS011;63555;49.920;17.868;2023-02-18T19:09:28;3.00;;;1.20;;
69910;SDS011;63555;49.920;17.868;2023-02-18T19:14:28;4.80;;;1.60;;
69910;SDS011;63555;49.920;17.868;2023-02-18T19:19:29;4.67;;;1.27;;
69910;SDS011;63555;49.920;17.868;2023-02-18T19:24:29;4.40;;;1.60;;
69910;SDS011;63555;49.920;17.868;2023-02-18T19:29:30;4.47;;;1.73;;
69910;SDS011;63555;49.920;17.868;2023-02-18T19:34:30;5.77;;;2.23;;
69910;SDS011;63555;49.920;17.868;2023-02-18T19:39:31;4.03;;;1.90;;
69910;SDS011;63555;49.920;17.868;2023-02-18T19:44:33;5.07;;;1.90;;
69910;SDS011;63555;49.920;17.868;2023-02-18T19:49:34;3.58;;;1.35;;
69910;SDS011;63555;49.920;17.868;2023-02-18T19:54:34;2.93;;;1.30;;
69910;SDS011;63555;49.920;17.868;2023-02-18T19:59:34;2.63;;;0.93;;
69910;SDS011;63555;49.920;17.868;2023-02-18T20:04:35;2.20;;;0.97;;
69910;SDS011;63555;49.920;17.868;2023-02-18T20:09:36;2.30;;;1.00;;
69910;SDS011;63555;49.920;17.868;2023-02-18T20:14:37;3.80;;;1.17;;
69910;SDS011;63555;49.920;17.868;2023-02-18T20:19:38;3.83;;;1.20;;
69910;SDS011;63555;49.920;17.868;2023-02-18T20:24:38;2.40;;;0.90;;
69910;SDS011;63555;49.920;17.868;2023-02-18T20:29:39;2.50;;;1.00;;
69910;SDS011;63555;49.920;17.868;2023-02-18T20:34:39;2.87;;;0.77;;
69910;SDS011;63555;49.920;17.868;2023-02-18T20:39:40;2.23;;;0.70;;
69910;SDS011;63555;49.920;17.868;2023-02-18T20:44:41;2.27;;;0.73;;
69910;SDS011;63555;49.920;17.868;2023-02-18T20:49:42;2.75;;;1.00;;
69910;SDS011;63555;49.920;17.868;2023-02-18T20:54:43;3.60;;;0.90;;
69910;SDS011;63555;49.920;17.868;2023-02-18T20:59:43;4.70;;;0.90;;
69910;SDS011;63555;49.920;17.868;2023-02-18T21:04:43;2.30;;;0.90;;
69910;SDS011;63555;49.920;17.868;2023-02-18T21:09:44;1.83;;;0.60;;
69910;SDS011;63555;49.920;17.868;2023-02-18T21:14:44;2.43;;;0.90;;
69910;SDS011;63555;49.920;17.868;2023-02-18T21:19:45;1.87;;;0.63;;
69910;SDS011;63555;49.920;17.868;2023-02-18T21:24:48;2.38;;;0.73;;
69910;SDS011;63555;49.920;17.868;2023-02-18T21:29:49;1.70;;;0.65;;
69910;SDS011;63555;49.920;17.868;2023-02-18T21:34:50;4.53;;;0.90;;
69910;SDS011;63555;49.920;17.868;2023-02-18T21:39:50;2.87;;;0.87;;
69910;SDS011;63555;49.920;17.868;2023-02-18T21:44:51;2.30;;;0.90;;
69910;SDS011;63555;49.920;17.868;2023-02-18T21:49:51;2.73;;;0.90;;
69910;SDS011;63555;49.920;17.868;2023-02-18T21:54:51;3.47;;;1.03;;
69910;SDS011;63555;49.920;17.868;2023-02-18T21:59:52;2.38;;;0.93;;
69910;SDS011;63555;49.920;17.868;2023-02-18T22:04:52;2.45;;;0.90;;
69910;SDS011;63555;49.920;17.868;2023-02-18T22:09:53;2.30;;;0.90;;
69910;SDS011;63555;49.920;17.868;2023-02-18T22:14:54;2.75;;;1.08;;
69910;SDS011;63555;49.920;17.868;2023-02-18T22:19:55;2.57;;;1.03;;
69910;SDS011;63555;49.920;17.868;2023-02-18T22:24:55;3.00;;;1.00;;
69910;SDS011;63555;49.920;17.868;2023-02-18T22:29:55;2.03;;;0.87;;
69910;SDS011;63555;49.920;17.868;2023-02-18T22:34:56;2.53;;;0.63;;
69910;SDS011;63555;49.920;17.868;2023-02-18T22:39:56;2.50;;;0.77;;
69910;SDS011;63555;49.920;17.868;2023-02-18T22:44:59;2.10;;;0.70;;
69910;SDS011;63555;49.920;17.868;2023-02-18T22:50:01;2.88;;;0.70;;
69910;SDS011;63555;49.920;17.868;2023-02-18T22:55:03;1.95;;;0.60;;
69910;SDS011;63555;49.920;17.868;2023-02-18T23:00:06;1.70;;;0.60;;
69910;SDS011;63555;49.920;17.868;2023-02-18T23:05:09;1.90;;;0.60;;
69910;SDS011;63555;49.920;17.868;2023-02-18T23:10:11;2.87;;;0.70;;
69910;SDS011;63555;49.920;17.868;2023-02-18T23:15:11;2.23;;;0.50;;
69910;SDS011;63555;49.920;17.868;2023-02-18T23:20:11;2.10;;;0.60;;
69910;SDS011;63555;49.920;17.868;2023-02-18T23:25:12;2.93;;;0.60;;
69910;SDS011;63555;49.920;17.868;2023-02-18T23:30:13;1.80;;;0.50;;
69910;SDS011;63555;49.920;17.868;2023-02-18T23:35:13;1.90;;;0.60;;
69910;SDS011;63555;49.920;17.868;2023-02-18T23:40:13;2.43;;;0.80;;
69910;SDS011;63555;49.920;17.868;2023-02-18T23:45:14;1.93;;;0.70;;
69910;SDS011;63555;49.920;17.868;2023-02-18T23:50:14;2.50;;;0.80;;
69910;SDS011;63555;49.920;17.868;2023-02-18T23:55:15;2.80;;;0.90;;
